Pike Road, Alabama
Current Conditions -  °F | °C
As of 5:58 PM on Tuesday 25 Nov 2014 (Local Time) from KMXF Reporting Station
Overcast Overcast  
Wind Chill: 56°   Ceiling: 12000
Heat Index: 56°   Visibility: 10mi
Dew Point: 33°   Wind: 8mph
Humidity: 42%   Direction: 290°WNW
Pressure: 30.1"   Gusts: NA
Location:  32.28°N, 86.1°W
Report Text: KMXF 252358Z AUTO 29007KT 10SM OVC120 14/01 A3010 RMK AO2 SLP196 T01360008 10166 20136 53021
Loading
Personal Weather Stations






























Interactive Weather Map New forecast layout! Learn more

10-Day Weather Forecast

Advertisements
Track Severe Weather on mobile